Terminal Aerodrome Forecast
Issued by NWS Charleston, WV

Current Version | Previous Version | Graphics & Text | Print | Product List | Glossary On
Versions: 1 2 3 4 5 6 7 8 9 10 11 12 13 14 15 16 17 18 19 20 21 22 23
000
FTUS41 KRLX 031500 AAA
TAFPKB
TAF AMD
KPKB 031506Z 0315/0412 13005KT P6SM -SHRA OVC040
     FM031700 17009KT P6SM -SHRA OVC020
     FM032100 18010G15KT 6SM -SHRA OVC015
     FM040000 20009KT 3SM -SHRA BR OVC008
     FM040200 22009KT 1SM +RA BR OVC004=

USA.gov is the U.S. government's official web portal to all federal, state and local government web resources and services.